Date,TemperatureHighF,TemperatureAvgF,TemperatureLowF,DewpointHighF,DewpointAvgF,DewpointLowF,HumidityHigh,HumidityAvg,HumidityLow,PressureMaxIn,PressureMinIn,WindSpeedMaxMPH,WindSpeedAvgMPH,GustSpeedMaxMPH,PrecipitationSumIn
2013-9-1,79.5,75.1,71.2,77.1,73.8,70.9,100,96,88,29.83,29.78,7,0,7,0.12
2013-9-2,78.5,72.6,67.7,75.5,71.4,67.1,99,96,87,29.81,29.66,8,0,8,0.15
2013-9-3,73.1,67.0,58.5,70.0,65.3,57.5,100,94,79,29.86,29.70,7,0,7,0.01
2013-9-4,77.7,63.9,52.4,64.4,58.9,52.0,100,86,54,29.97,29.85,7,0,8,0.00
2013-9-5,72.1,60.6,47.6,64.1,54.2,46.5,100,82,47,30.15,29.89,11,0,11,0.01
2013-9-6,69.2,53.7,42.3,52.7,46.5,41.7,99,80,44,30.25,30.13,8,0,8,0.00
2013-9-7,77.5,59.4,42.5,61.9,53.1,42.0,99,82,48,30.12,29.88,7,0,7,0.00
2013-9-8,75.8,63.0,48.7,66.6,57.0,47.2,99,83,44,30.09,29.80,12,0,12,0.00
2013-9-9,69.7,55.8,41.1,56.5,49.6,40.4,99,82,51,30.24,30.08,8,0,9,0.00
2013-9-10,76.2,65.8,55.9,74.6,65.0,54.8,100,97,93,30.17,30.03,6,0,7,0.13
2013-9-11,93.0,76.0,64.3,81.6,72.4,64.3,100,90,61,30.09,29.94,7,0,9,0.00
2013-9-12,82.1,71.9,65.5,77.3,70.2,64.9,100,95,82,29.96,29.66,12,0,12,0.64
2013-9-13,73.2,65.4,53.7,67.7,62.2,49.9,100,90,72,29.82,29.60,10,0,14,0.05
2013-9-14,66.3,54.4,44.9,55.3,49.8,44.1,98,86,62,30.11,29.82,11,0,12,0.00
2013-9-15,68.4,53.1,39.4,55.5,48.3,38.8,100,86,54,30.20,30.08,6,0,6,0.00
2013-9-16,66.3,56.4,46.0,58.3,53.0,44.5,99,89,67,30.26,30.03,8,0,9,0.01
2013-9-17,65.1,49.5,36.2,47.5,42.0,35.4,99,79,38,30.43,30.26,11,0,11,0.00
2013-9-18,71.3,52.0,37.3,53.5,45.7,36.8,99,82,41,30.35,30.17,7,0,7,0.00
2013-9-19,76.4,55.5,40.1,59.4,49.6,39.6,100,83,43,30.19,30.05,6,0,6,0.01
2013-9-20,79.2,58.8,42.8,61.9,52.7,42.3,99,83,39,30.09,29.98,7,0,7,0.00
2013-9-21,70.1,63.0,52.1,67.6,61.1,51.3,99,94,78,30.01,29.64,15,1,15,0.17
2013-9-22,66.7,59.2,48.6,66.1,55.4,43.0,100,88,63,29.89,29.61,10,0,10,1.27
2013-9-23,61.3,49.6,38.6,47.2,43.7,37.8,99,82,56,30.04,29.88,14,1,14,0.00
2013-9-24,69.2,50.5,35.9,50.0,43.6,35.0,99,80,42,30.05,29.86,10,0,11,0.00
2013-9-25,70.3,52.8,38.8,55.1,47.5,38.3,100,85,50,29.95,29.87,7,0,7,0.00
2013-9-26,68.8,56.6,47.4,56.3,52.1,46.4,99,86,56,30.11,29.95,7,0,7,0.00
2013-9-27,63.6,53.8,43.8,56.9,50.8,43.3,100,90,71,30.28,30.10,5,0,6,0.00
2013-9-28,72.8,55.4,41.6,59.7,50.5,41.0,100,86,52,30.33,30.24,5,0,6,0.00
2013-9-29,71.6,55.1,44.8,59.5,50.9,44.3,99,88,51,30.25,30.07,5,0,6,0.01
2013-9-30,71.0,55.1,42.7,58.9,50.6,42.1,100,87,57,30.10,29.96,7,0,7,0.00